Time;durP1;ratioP1;P1;durP2;ratioP2;P2;SDS_P1;SDS_P2;PMS_P1;PMS_P2;Temp;Humidity;BMP_temperature;BMP_pressure;BME280_temperature;BME280_humidity;BME280_pressure;Samples;Min_cycle;Max_cycle;Signal;HPM_P1;HPM_P2
2023/03/22 00:01:19;;;;;;;;;;;;;;;9.18;100.00;100990.72;5070092;28;20052;-36
2023/03/22 00:03:46;;;;;;;5.18;2.72;;;;;;;9.08;100.00;100980.41;5069956;28;19912;-36
2023/03/22 00:06:12;;;;;;;6.10;2.83;;;;;;;9.10;100.00;100983.72;5069938;28;20050;-36
2023/03/22 00:08:37;;;;;;;7.57;3.05;;;;;;;9.08;100.00;100982.25;5069514;28;20401;-36
2023/03/22 00:11:04;;;;;;;7.68;2.70;;;;;;;9.08;100.00;100974.16;5070117;28;20038;-36
2023/03/22 00:13:30;;;;;;;6.63;2.92;;;;;;;8.97;100.00;100968.44;5058212;28;20017;-36
2023/03/22 00:15:58;;;;;;;6.88;3.20;;;;;;;8.88;100.00;100956.28;5057146;28;20504;-36
2023/03/22 00:18:24;;;;;;;9.35;3.45;;;;;;;8.93;100.00;100964.53;5056202;28;20096;-36
2023/03/22 00:20:54;;;;;;;10.93;3.75;;;;;;;8.90;100.00;100962.25;5056152;28;20525;-36
2023/03/22 00:23:21;;;;;;;6.65;2.70;;;;;;;8.84;100.00;100959.63;5056377;28;20021;-36
2023/03/22 00:25:47;;;;;;;5.00;2.60;;;;;;;8.80;100.00;100955.69;5056400;28;20063;-36
2023/03/22 00:28:13;;;;;;;5.20;2.80;;;;;;;8.77;100.00;100957.75;5056611;28;20388;-37
2023/03/22 00:30:39;;;;;;;5.85;2.55;;;;;;;8.75;100.00;100954.47;5056636;28;20044;-36
2023/03/22 00:33:05;;;;;;;6.35;2.60;;;;;;;8.74;100.00;100946.59;5055694;28;20025;-36
2023/03/22 00:35:30;;;;;;;5.95;2.63;;;;;;;8.76;100.00;100941.81;5054995;28;20033;-35
2023/03/22 00:37:56;;;;;;;6.30;2.45;;;;;;;8.70;100.00;100939.97;5056132;28;20032;-35
2023/03/22 00:40:22;;;;;;;5.22;2.47;;;;;;;8.69;100.00;100938.34;5056060;28;20427;-35
2023/03/22 00:42:47;;;;;;;5.40;2.53;;;;;;;8.68;100.00;100932.09;5055510;28;20496;-35
2023/03/22 00:45:13;;;;;;;4.18;2.28;;;;;;;8.67;100.00;100918.84;5055990;28;20025;-35
2023/03/22 00:47:38;;;;;;;7.60;2.85;;;;;;;8.68;100.00;100925.88;5055686;28;20119;-35
2023/03/22 00:50:06;;;;;;;6.88;2.30;;;;;;;8.67;100.00;100919.66;5055916;28;20461;-35
2023/03/22 00:52:31;;;;;;;4.97;2.35;;;;;;;8.68;100.00;100917.78;5055262;28;20024;-36
2023/03/22 00:54:58;;;;;;;6.50;2.65;;;;;;;8.68;100.00;100912.41;5055873;28;20136;-35
2023/03/22 00:57:23;;;;;;;;;;;;;;;8.73;100.00;100918.78;5055876;28;20115;-36
2023/03/22 00:59:49;;;;;;;7.22;3.13;;;;;;;8.69;100.00;100917.59;5056069;28;20353;-36
2023/03/22 01:02:16;;;;;;;5.70;2.50;;;;;;;8.71;100.00;100904.72;5055941;28;20045;-36
2023/03/22 01:04:45;;;;;;;5.63;2.67;;;;;;;8.74;100.00;100916.94;5056187;28;20064;-36
2023/03/22 01:07:20;;;;;;;7.03;2.97;;;;;;;8.75;100.00;100907.81;5054890;28;20351;-36
2023/03/22 01:09:46;;;;;;;5.32;2.30;;;;;;;8.76;100.00;100898.66;5054956;28;20025;-36
2023/03/22 01:12:13;;;;;;;6.68;3.17;;;;;;;8.74;100.00;100898.06;5055763;28;20032;-36
2023/03/22 01:14:38;;;;;;;;;;;;;;;8.81;100.00;100892.63;5055928;28;20055;-36
2023/03/22 01:17:04;;;;;;;5.35;2.70;;;;;;;8.76;100.00;100888.72;5054794;28;20393;-36
2023/03/22 01:19:29;;;;;;;6.38;3.05;;;;;;;8.70;100.00;100881.50;5055165;28;20116;-36
2023/03/22 01:21:55;;;;;;;4.32;2.45;;;;;;;8.73;100.00;100875.66;5054693;28;20025;-36
2023/03/22 01:24:20;;;;;;;5.73;2.83;;;;;;;8.76;100.00;100872.53;5054053;28;20033;-36
2023/03/22 01:26:46;;;;;;;6.40;2.78;;;;;;;8.77;100.00;100865.25;5055622;28;20313;-36
2023/03/22 01:29:11;;;;;;;7.57;3.20;;;;;;;8.77;100.00;100849.09;5054895;28;20048;-36
2023/03/22 01:31:37;;;;;;;10.52;3.50;;;;;;;8.81;100.00;100847.59;5055767;28;20021;-36
2023/03/22 01:34:03;;;;;;;8.17;3.70;;;;;;;8.85;100.00;100845.31;5054800;28;20457;-36
2023/03/22 01:36:28;;;;;;;6.22;3.58;;;;;;;8.86;100.00;100836.16;5055373;28;20260;-36
2023/03/22 01:38:54;;;;;;;6.78;3.90;;;;;;;8.90;100.00;100835.50;5055054;28;20036;-36
2023/03/22 01:41:20;;;;;;;9.20;4.68;;;;;;;8.94;100.00;100839.41;5055139;28;20067;-36
2023/03/22 01:44:05;;;;;;;6.65;3.97;;;;;;;8.90;100.00;100821.19;5054669;28;20025;-36
2023/03/22 01:46:31;;;;;;;5.47;4.00;;;;;;;8.99;100.00;100820.69;5053874;28;20040;-36
2023/03/22 01:48:59;;;;;;;6.78;4.95;;;;;;;9.01;100.00;100812.38;5054529;28;20029;-36
2023/03/22 01:51:24;;;;;;;9.82;5.18;;;;;;;9.08;100.00;100804.22;5054788;28;20036;-36
2023/03/22 01:53:55;;;;;;;7.65;5.20;;;;;;;9.08;100.00;100796.13;5054750;28;20085;-36
2023/03/22 01:56:24;;;;;;;7.97;5.38;;;;;;;9.01;100.00;100782.72;5054906;28;20503;-36
2023/03/22 01:58:51;;;;;;;9.07;6.13;;;;;;;9.14;100.00;100782.59;5054352;28;20028;-36
2023/03/22 02:01:16;;;;;;;7.32;5.35;;;;;;;9.17;100.00;100786.69;5054595;28;20543;-36
2023/03/22 02:04:01;;;;;;;6.33;5.37;;;;;;;9.17;100.00;100775.91;5054897;28;20028;-36
2023/03/22 02:06:28;;;;;;;8.43;5.32;;;;;;;9.14;100.00;100769.09;5054470;28;20021;-36
2023/03/22 02:08:56;;;;;;;7.05;5.53;;;;;;;9.23;100.00;100778.56;5054104;28;20057;-36
2023/03/22 02:11:34;;;;;;;7.78;5.38;;;;;;;9.20;100.00;100762.81;5054374;28;20029;-36
2023/03/22 02:14:05;;;;;;;8.05;6.32;;;;;;;9.29;100.00;100782.22;5054823;28;20100;-36
2023/03/22 02:17:06;;;;;;;8.27;5.55;;;;;;;9.29;100.00;100772.25;5054564;28;20028;-36
2023/03/22 02:19:50;;;;;;;8.68;5.95;;;;;;;9.34;100.00;100768.88;5053953;28;20029;-36
2023/03/22 02:22:52;;;;;;;10.95;6.68;;;;;;;9.35;100.00;100762.44;5054120;28;20178;-36
2023/03/22 02:25:36;;;;;;;9.52;7.22;;;;;;;9.37;100.00;100771.16;5053450;28;20373;-36
2023/03/22 02:28:10;;;;;;;7.93;6.32;;;;;;;9.37;100.00;100765.75;5053838;28;20527;-36
2023/03/22 02:30:43;;;;;;;9.60;6.50;;;;;;;9.39;100.00;100770.91;5054093;28;20036;-36
2023/03/22 02:33:14;;;;;;;9.23;6.85;;;;;;;9.40;100.00;100767.97;5054068;28;20032;-36
2023/03/22 02:35:52;;;;;;;7.50;6.18;;;;;;;9.43;100.00;100755.94;5054054;28;20028;-36
2023/03/22 02:38:44;;;;;;;9.10;6.28;;;;;;;9.44;100.00;100761.09;5054255;28;20062;-36
2023/03/22 02:41:15;;;;;;;10.07;6.95;;;;;;;9.43;100.00;100756.75;5053280;28;20036;-36
2023/03/22 02:44:18;;;;;;;10.15;6.55;;;;;;;9.46;100.00;100758.16;5053917;28;20100;-36
2023/03/22 02:46:51;;;;;;;7.72;6.13;;;;;;;9.47;100.00;100759.81;5053868;28;20044;-36
2023/03/22 02:49:22;;;;;;;9.05;6.45;;;;;;;9.48;100.00;100758.78;5053286;28;20123;-36
2023/03/22 02:51:58;;;;;;;7.82;6.10;;;;;;;9.41;100.00;100737.25;5053782;28;20477;-36
2023/03/22 02:54:41;;;;;;;9.43;6.80;;;;;;;9.47;100.00;100749.03;5054099;28;20025;-36
2023/03/22 02:57:22;;;;;;;7.75;6.18;;;;;;;9.46;100.00;100745.47;5053469;28;20036;-36
2023/03/22 02:59:49;;;;;;;10.20;6.10;;;;;;;9.49;100.00;100734.25;5053490;28;20021;-36
2023/03/22 03:02:17;;;;;;;7.35;5.97;;;;;;;9.43;100.00;100732.47;5053966;28;20413;-36
2023/03/22 03:04:48;;;;;;;8.95;5.90;;;;;;;9.46;100.00;100734.69;5053328;28;20029;-36
2023/03/22 03:07:18;;;;;;;6.80;5.30;;;;;;;9.48;100.00;100738.00;5053262;28;20029;-36
2023/03/22 03:09:44;;;;;;;8.43;5.55;;;;;;;9.45;100.00;100722.25;5053612;28;20481;-36
2023/03/22 03:12:20;;;;;;;6.75;5.32;;;;;;;9.45;100.00;100722.25;5053034;28;20041;-36
2023/03/22 03:14:46;;;;;;;6.22;5.30;;;;;;;9.36;100.00;100714.69;5054207;28;20029;-36
2023/03/22 03:17:22;;;;;;;6.15;5.00;;;;;;;9.44;100.00;100725.19;5053302;28;20404;-36
2023/03/22 03:20:11;;;;;;;8.45;5.93;;;;;;;9.44;100.00;100720.59;5053291;28;20461;-36
2023/03/22 03:22:54;;;;;;;5.93;5.20;;;;;;;9.43;100.00;100718.13;5053753;28;20047;-36
2023/03/22 03:25:42;;;;;;;7.18;5.10;;;;;;;9.44;100.00;100719.78;5053550;28;20495;-36
2023/03/22 03:28:10;;;;;;;7.93;4.80;;;;;;;9.43;100.00;100727.06;5053178;28;20496;-36
2023/03/22 03:30:43;;;;;;;6.93;4.32;;;;;;;9.42;100.00;100720.03;5053760;28;20029;-36
2023/03/22 03:33:15;;;;;;;6.32;5.00;;;;;;;9.42;100.00;100721.88;5053408;28;20029;-36
2023/03/22 03:35:49;;;;;;;7.35;4.70;;;;;;;9.37;100.00;100708.22;5053104;28;20047;-36
2023/03/22 03:38:19;;;;;;;7.55;4.80;;;;;;;9.36;100.00;100710.09;5053138;28;20075;-36
2023/03/22 03:40:49;;;;;;;6.85;4.15;;;;;;;9.40;100.00;100714.00;5052964;28;20108;-36
2023/03/22 03:43:15;;;;;;;5.80;4.05;;;;;;;9.40;100.00;100715.88;5052674;28;20114;-36
2023/03/22 03:45:41;;;;;;;4.68;3.80;;;;;;;9.39;100.00;100712.38;5053034;28;20028;-36
2023/03/22 03:48:29;;;;;;;4.95;4.13;;;;;;;9.32;100.00;100717.03;5054537;28;20533;-36
2023/03/22 03:50:56;;;;;;;5.43;4.28;;;;;;;9.34;100.00;100719.50;5056516;28;20037;-36
2023/03/22 03:53:22;;;;;;;4.35;3.40;;;;;;;9.31;100.00;100720.75;5056781;28;20039;-36
2023/03/22 03:55:48;;;;;;;5.60;3.55;;;;;;;9.30;100.00;100732.59;5057285;28;20112;-36
2023/03/22 03:58:15;;;;;;;7.35;3.42;;;;;;;9.24;100.00;100717.31;5056647;28;20063;-36
2023/03/22 04:00:40;;;;;;;6.43;4.07;;;;;;;9.28;100.00;100721.22;5057007;28;20048;-36
2023/03/22 04:03:05;;;;;;;4.63;3.87;;;;;;;9.24;100.00;100726.25;5056352;28;20048;-36
2023/03/22 04:05:31;;;;;;;5.67;3.80;;;;;;;9.23;100.00;100721.91;5056325;28;20262;-36
2023/03/22 04:07:56;;;;;;;7.53;3.70;;;;;;;9.21;100.00;100723.16;5056495;28;20033;-36
2023/03/22 04:10:22;;;;;;;7.90;3.87;;;;;;;9.20;100.00;100721.50;5057003;28;20033;-36
2023/03/22 04:12:47;;;;;;;6.73;3.30;;;;;;;9.15;100.00;100721.38;5056127;28;20286;-36
2023/03/22 04:15:12;;;;;;;9.17;4.50;;;;;;;9.11;100.00;100706.66;5056976;28;20035;-36
2023/03/22 04:17:39;;;;;;;6.43;3.10;;;;;;;9.08;100.00;100709.81;5056004;28;20029;-36
2023/03/22 04:20:09;;;;;;;5.45;3.38;;;;;;;9.12;100.00;100719.94;5056810;28;20267;-36
2023/03/22 04:22:37;;;;;;;5.28;2.75;;;;;;;9.11;100.00;100714.75;5055779;28;20477;-36
2023/03/22 04:25:10;;;;;;;4.75;2.70;;;;;;;9.06;100.00;100706.53;5056140;28;20104;-36
2023/03/22 04:27:37;;;;;;;4.07;2.67;;;;;;;9.13;100.00;100715.38;5056692;28;20044;-36
2023/03/22 04:30:03;;;;;;;6.13;2.90;;;;;;;9.11;100.00;100712.06;5056667;28;20029;-36
2023/03/22 04:32:29;;;;;;;4.63;3.45;;;;;;;9.10;100.00;100715.81;5055982;28;20029;-36
2023/03/22 04:34:54;;;;;;;6.10;3.03;;;;;;;9.07;100.00;100702.78;5056060;28;20017;-36
2023/03/22 04:37:23;;;;;;;4.88;2.60;;;;;;;9.02;100.00;100698.88;5055949;28;20029;-36
2023/03/22 04:39:49;;;;;;;7.07;2.55;;;;;;;9.05;100.00;100699.47;5055853;28;20465;-36
2023/03/22 04:42:14;;;;;;;5.97;2.88;;;;;;;9.05;100.00;100699.47;5056025;28;20037;-36
2023/03/22 04:44:40;;;;;;;5.13;3.28;;;;;;;9.00;100.00;100695.59;5056355;28;20377;-36
2023/03/22 04:47:05;;;;;;;6.63;2.97;;;;;;;9.01;100.00;100702.63;5055774;28;20051;-36
2023/03/22 04:49:31;;;;;;;6.30;3.10;;;;;;;9.00;100.00;100698.28;5056324;28;20098;-36
2023/03/22 04:51:56;;;;;;;6.05;3.40;;;;;;;8.96;100.00;100697.06;5055344;28;20452;-36
2023/03/22 04:54:22;;;;;;;8.97;2.70;;;;;;;8.98;100.00;100699.56;5055691;28;20036;-36
2023/03/22 04:56:48;;;;;;;7.70;3.22;;;;;;;8.98;100.00;100703.09;5055637;28;20255;-36
2023/03/22 04:59:16;;;;;;;5.63;2.60;;;;;;;8.96;100.00;100697.06;5055037;28;20397;-36
2023/03/22 05:01:41;;;;;;;5.10;2.65;;;;;;;8.97;100.00;100698.72;5055321;28;20485;-36
2023/03/22 05:04:07;;;;;;;4.87;2.53;;;;;;;8.95;100.00;100690.03;5053870;28;20087;-36
2023/03/22 05:06:33;;;;;;;4.57;2.60;;;;;;;8.99;100.00;100690.41;5055694;28;20078;-36
2023/03/22 05:08:59;;;;;;;5.38;2.80;;;;;;;8.92;100.00;100682.38;5055588;28;20263;-36
2023/03/22 05:11:26;;;;;;;6.32;2.88;;;;;;;8.95;100.00;100676.56;5055245;28;20029;-36
2023/03/22 05:13:53;;;;;;;5.60;2.70;;;;;;;8.99;100.00;100680.47;5055194;28;20025;-36
2023/03/22 05:16:19;;;;;;;5.25;2.58;;;;;;;9.00;100.00;100681.28;5055215;28;20033;-36
2023/03/22 05:18:44;;;;;;;6.28;2.83;;;;;;;8.98;100.00;100683.38;5055442;28;20028;-36
2023/03/22 05:21:14;;;;;;;6.65;3.15;;;;;;;8.97;100.00;100682.53;5055924;28;20036;-36
2023/03/22 05:23:39;;;;;;;5.78;2.60;;;;;;;8.94;100.00;100677.59;5055084;28;20029;-36
2023/03/22 05:26:07;;;;;;;7.05;2.50;;;;;;;8.86;100.00;100669.81;5055374;28;20082;-36
2023/03/22 05:28:33;;;;;;;6.47;2.83;;;;;;;8.92;100.00;100677.00;5054622;28;20056;-36
2023/03/22 05:30:58;;;;;;;4.10;2.60;;;;;;;8.91;100.00;100680.75;5055206;28;20029;-36
2023/03/22 05:33:23;;;;;;;4.80;2.27;;;;;;;8.92;100.00;100685.06;5055135;28;20032;-36
2023/03/22 05:35:51;;;;;;;5.27;2.40;;;;;;;8.85;100.00;100668.16;5055164;28;20107;-36
2023/03/22 05:38:17;;;;;;;6.28;2.70;;;;;;;8.91;100.00;100683.44;5055552;28;20385;-36
2023/03/22 05:40:43;;;;;;;9.25;3.50;;;;;;;8.92;100.00;100674.28;5054285;28;20112;-36
2023/03/22 05:43:09;;;;;;;5.47;2.25;;;;;;;8.93;100.00;100673.25;5055075;28;20453;-36
2023/03/22 05:45:35;;;;;;;8.10;2.83;;;;;;;8.89;100.00;100672.06;5054788;28;20121;-36
2023/03/22 05:48:01;;;;;;;4.88;2.40;;;;;;;8.91;100.00;100679.91;5054438;28;20064;-36
2023/03/22 05:50:26;;;;;;;8.77;2.08;;;;;;;8.90;100.00;100679.09;5054722;28;20048;-36
2023/03/22 05:52:52;;;;;;;4.10;2.00;;;;;;;8.91;100.00;100683.44;5054908;28;20497;-36
2023/03/22 05:55:18;;;;;;;6.25;2.35;;;;;;;8.90;100.00;100692.59;5054610;28;20033;-36
2023/03/22 05:57:50;;;;;;;8.85;2.83;;;;;;;8.87;100.00;100687.63;5054090;28;20023;-36
2023/03/22 06:00:16;;;;;;;6.43;2.45;;;;;;;8.89;100.00;100684.72;5054547;28;20528;-36
2023/03/22 06:02:44;;;;;;;7.68;2.25;;;;;;;8.92;100.00;100687.78;5054050;28;20051;-36
2023/03/22 06:05:11;;;;;;;7.03;2.38;;;;;;;8.95;100.00;100683.81;5055052;28;20040;-36
2023/03/22 06:07:38;;;;;;;6.22;2.28;;;;;;;8.94;100.00;100688.41;5054185;28;20025;-36
2023/03/22 06:10:05;;;;;;;4.68;1.85;;;;;;;8.97;100.00;100682.53;5053631;28;20032;-36
2023/03/22 06:12:31;;;;;;;6.47;2.20;;;;;;;8.96;100.00;100680.88;5054096;28;20397;-36
2023/03/22 06:14:56;;;;;;;6.90;2.00;;;;;;;8.95;100.00;100676.56;5054370;28;20029;-35
2023/03/22 06:17:22;;;;;;;6.10;2.35;;;;;;;9.01;100.00;100672.94;5054062;28;20100;-35
2023/03/22 06:19:48;;;;;;;;;;;;;;;9.06;100.00;100671.47;5054693;28;20445;-35
2023/03/22 06:22:13;;;;;;;5.53;1.90;;;;;;;9.08;100.00;100674.75;5054633;28;19912;-35
2023/03/22 06:24:41;;;;;;;5.70;2.33;;;;;;;9.09;100.00;100673.72;5053930;28;20029;-36
2023/03/22 06:27:06;;;;;;;5.53;2.35;;;;;;;9.11;100.00;100674.31;5054387;28;20029;-36
2023/03/22 06:29:32;;;;;;;7.93;2.30;;;;;;;9.13;100.00;100673.03;5054111;28;20025;-35
2023/03/22 06:31:57;;;;;;;8.38;2.35;;;;;;;9.10;100.00;100672.66;5053738;28;20033;-35
2023/03/22 06:34:23;;;;;;;6.10;2.08;;;;;;;9.16;100.00;100679.84;5054087;28;20082;-35
2023/03/22 06:36:49;;;;;;;4.93;1.90;;;;;;;9.19;100.00;100676.72;5054032;28;20461;-35
2023/03/22 06:39:14;;;;;;;5.70;2.35;;;;;;;9.22;100.00;100671.69;5054241;28;20028;-35
2023/03/22 06:41:39;;;;;;;7.47;2.67;;;;;;;9.23;100.00;100669.81;5053923;28;20040;-34
2023/03/22 06:44:05;;;;;;;6.40;2.37;;;;;;;9.27;100.00;100668.28;5053887;28;20285;-37
2023/03/22 06:46:30;;;;;;;8.90;2.33;;;;;;;9.35;100.00;100678.78;5054185;28;20031;-35
2023/03/22 06:48:55;;;;;;;5.30;2.27;;;;;;;9.37;100.00;100681.25;5053586;28;20279;-35
2023/03/22 06:51:21;;;;;;;7.23;2.97;;;;;;;9.39;100.00;100674.59;5054112;28;20091;-35
2023/03/22 06:53:47;;;;;;;8.57;2.93;;;;;;;9.45;100.00;100676.38;5053574;28;20025;-35
2023/03/22 06:56:12;;;;;;;8.50;2.72;;;;;;;9.51;100.00;100686.25;5052506;28;20024;-35
2023/03/22 06:58:38;;;;;;;10.05;2.95;;;;;;;9.58;100.00;100677.25;5053407;28;20353;-35
2023/03/22 07:01:03;;;;;;;5.70;2.47;;;;;;;9.67;100.00;100682.09;5053415;28;20021;-35
2023/03/22 07:03:28;;;;;;;7.00;2.58;;;;;;;9.73;100.00;100680.38;5053177;28;20350;-35
2023/03/22 07:06:02;;;;;;;8.27;3.13;;;;;;;9.76;100.00;100671.78;5053453;28;20100;-35
2023/03/22 07:08:27;;;;;;;8.95;3.35;;;;;;;9.84;100.00;100679.56;5053072;28;20268;-35
2023/03/22 07:10:52;;;;;;;8.93;2.67;;;;;;;9.88;100.00;100683.47;5053742;28;20074;-35
2023/03/22 07:13:18;;;;;;;4.70;2.70;;;;;;;9.86;100.00;100677.47;5053115;28;20036;-35
2023/03/22 07:15:43;;;;;;;7.43;2.43;;;;;;;9.86;100.00;100676.63;5053675;28;20248;-35
2023/03/22 07:18:09;;;;;;;5.57;2.42;;;;;;;9.82;100.00;100668.19;5053259;28;20043;-35
2023/03/22 07:20:37;;;;;;;6.82;2.58;;;;;;;9.85;100.00;100683.91;5053216;28;20033;-35
2023/03/22 07:23:03;;;;;;;5.15;2.30;;;;;;;9.81;100.00;100674.66;5054995;28;20035;-35
2023/03/22 07:25:28;;;;;;;7.85;2.75;;;;;;;9.86;100.00;100685.59;5057306;28;20532;-35
2023/03/22 07:27:54;;;;;;;10.40;3.60;;;;;;;9.80;100.00;100675.69;5057299;28;20032;-35
2023/03/22 07:30:19;;;;;;;6.85;2.40;;;;;;;9.90;100.00;100681.34;5057519;28;20128;-35
2023/03/22 07:32:44;;;;;;;7.03;2.60;;;;;;;9.93;100.00;100689.00;5056800;28;20037;-35
2023/03/22 07:35:10;;;;;;;7.25;2.58;;;;;;;9.94;100.00;100693.34;5057709;28;20082;-35
2023/03/22 07:37:35;;;;;;;6.60;2.13;;;;;;;9.98;100.00;100696.41;5057076;28;20078;-35
2023/03/22 07:40:02;;;;;;;7.43;2.43;;;;;;;10.01;100.00;100687.84;5057887;28;20716;-35
2023/03/22 07:42:28;;;;;;;4.53;2.17;;;;;;;10.00;100.00;100688.88;5056870;28;20082;-35
2023/03/22 07:44:54;;;;;;;5.28;2.20;;;;;;;10.00;100.00;100689.75;5057412;28;20024;-36
2023/03/22 07:47:20;;;;;;;6.20;2.60;;;;;;;10.04;100.00;100693.59;5056556;28;20029;-36
2023/03/22 07:49:45;;;;;;;10.77;4.33;;;;;;;10.06;100.00;100690.69;5057087;28;20032;-36
2023/03/22 07:52:11;;;;;;;11.43;3.13;;;;;;;10.09;100.00;100684.81;5056789;28;20271;-35
2023/03/22 07:54:36;;;;;;;7.03;2.90;;;;;;;10.14;100.00;100697.63;5057318;28;20032;-36
2023/03/22 07:57:01;;;;;;;8.90;2.90;;;;;;;10.15;100.00;100691.16;5056678;28;20025;-36
2023/03/22 07:59:27;;;;;;;6.88;3.20;;;;;;;10.15;100.00;100699.25;5056993;28;20462;-37
2023/03/22 08:01:52;;;;;;;5.72;2.80;;;;;;;10.15;100.00;100696.56;5056765;28;20106;-35
2023/03/22 08:04:19;;;;;;;6.90;3.33;;;;;;;10.15;100.00;100697.41;5056602;28;20040;-35
2023/03/22 08:06:45;;;;;;;7.03;2.47;;;;;;;10.20;100.00;100705.66;5056552;28;20024;-35
2023/03/22 08:09:11;;;;;;;5.93;2.67;;;;;;;10.20;100.00;100689.44;5056453;28;20075;-35
2023/03/22 08:11:36;;;;;;;5.70;2.75;;;;;;;10.29;100.00;100698.03;5055540;28;20035;-35
2023/03/22 08:14:01;;;;;;;6.37;3.07;;;;;;;10.31;100.00;100693.22;5056400;28;20090;-35
2023/03/22 08:16:27;;;;;;;7.75;2.70;;;;;;;10.32;100.00;100690.28;5056678;28;20271;-35
2023/03/22 08:18:52;;;;;;;7.30;2.60;;;;;;;10.31;100.00;100685.94;5055051;28;20465;-35
2023/03/22 08:21:18;;;;;;;7.55;2.45;;;;;;;10.44;100.00;100698.44;5056196;28;20025;-35
2023/03/22 08:23:43;;;;;;;8.07;2.73;;;;;;;10.50;100.00;100691.25;5056277;28;20083;-35
2023/03/22 08:26:09;;;;;;;5.13;1.97;;;;;;;10.60;100.00;100694.19;5055915;28;20021;-35
2023/03/22 08:28:35;;;;;;;6.47;2.40;;;;;;;10.66;100.00;100692.44;5055773;28;20032;-35
2023/03/22 08:31:00;;;;;;;5.72;1.88;;;;;;;10.70;100.00;100682.78;5056065;28;20040;-35
2023/03/22 08:33:26;;;;;;;5.37;2.30;;;;;;;10.79;100.00;100684.91;5056086;28;20033;-35
2023/03/22 08:36:03;;;;;;;9.65;2.17;;;;;;;10.88;100.00;100690.75;5056755;28;20040;-35
2023/03/22 08:38:28;;;;;;;7.82;2.50;;;;;;;10.92;100.00;100678.41;5056585;28;20035;-35
2023/03/22 08:40:54;;;;;;;6.50;1.80;;;;;;;10.90;100.00;100663.50;5055832;28;20033;-35
2023/03/22 08:43:19;;;;;;;4.65;1.90;;;;;;;11.01;100.00;100677.00;5056075;28;20279;-36
2023/03/22 08:45:46;;;;;;;8.13;2.73;;;;;;;10.85;100.00;100645.28;5055834;28;20035;-36
2023/03/22 08:48:11;;;;;;;5.43;2.10;;;;;;;11.04;100.00;100676.53;5055388;28;20271;-36
2023/03/22 08:50:38;;;;;;;5.70;2.10;;;;;;;11.05;100.00;100672.75;5056056;28;20029;-36
2023/03/22 08:53:04;;;;;;;7.35;1.88;;;;;;;11.02;100.00;100661.56;5055679;28;20059;-35
2023/03/22 08:55:30;;;;;;;8.02;2.53;;;;;;;11.04;100.00;100679.22;5056492;28;20107;-36
2023/03/22 08:57:57;;;;;;;6.28;2.15;;;;;;;11.16;100.00;100675.66;5055590;28;20017;-36
2023/03/22 09:00:23;;;;;;;7.22;2.20;;;;;;;11.20;100.00;100669.53;5055746;28;20434;-36
2023/03/22 09:02:49;;;;;;;;;;;;;;;11.30;100.00;100664.34;5055779;28;20124;-36
2023/03/22 09:05:14;;;;;;;8.68;1.92;;;;;;;11.38;100.00;100665.84;5056037;28;19963;-35
2023/03/22 09:07:40;;;;;;;7.45;2.00;;;;;;;11.39;100.00;100659.38;5055644;28;20036;-35
2023/03/22 09:10:07;;;;;;;7.07;2.10;;;;;;;11.41;100.00;100680.78;5055677;28;20445;-35
2023/03/22 09:12:32;;;;;;;6.85;1.80;;;;;;;11.46;100.00;100667.34;5054986;28;20096;-35
2023/03/22 09:14:57;;;;;;;6.13;1.80;;;;;;;11.48;100.00;100649.81;5055892;28;20096;-35
2023/03/22 09:17:23;;;;;;;6.77;1.80;;;;;;;11.39;100.00;100645.84;5055827;28;20654;-35
2023/03/22 09:19:48;;;;;;;6.67;1.70;;;;;;;11.53;100.00;100668.03;5054993;28;20064;-35
2023/03/22 09:22:14;;;;;;;4.18;1.70;;;;;;;11.51;100.00;100648.47;5054773;28;20025;-35
2023/03/22 09:24:39;;;;;;;5.90;1.77;;;;;;;11.56;99.48;100657.53;5055421;28;20032;-36
2023/03/22 09:27:05;;;;;;;8.80;2.53;;;;;;;11.60;98.34;100652.44;5055064;28;20352;-35
2023/03/22 09:29:31;;;;;;;6.18;1.40;;;;;;;11.62;98.86;100650.34;5055569;28;20434;-36
2023/03/22 09:31:56;;;;;;;8.70;2.05;;;;;;;11.58;100.00;100655.41;5054931;28;20028;-36
2023/03/22 09:34:21;;;;;;;5.40;1.58;;;;;;;11.57;99.53;100642.94;5055474;28;20449;-36
2023/03/22 09:36:47;;;;;;;7.50;1.80;;;;;;;11.56;99.86;100646.69;5054929;28;20063;-36
2023/03/22 09:39:15;;;;;;;6.97;1.92;;;;;;;11.46;100.00;100637.56;5054687;28;20461;-36
2023/03/22 09:41:47;;;;;;;6.57;1.85;;;;;;;11.53;100.00;100649.09;5055217;28;20052;-36
2023/03/22 09:44:30;;;;;;;6.93;2.28;;;;;;;11.54;99.81;100643.41;5054980;28;20090;-36
2023/03/22 09:46:58;;;;;;;6.07;1.80;;;;;;;11.46;98.83;100643.78;5054163;28;20053;-36
2023/03/22 09:49:28;;;;;;;4.18;1.67;;;;;;;11.52;98.60;100650.97;5055330;28;20029;-36
2023/03/22 09:51:55;;;;;;;6.80;2.63;;;;;;;11.52;99.05;100647.44;5054741;28;20513;-37
2023/03/22 09:54:26;;;;;;;;;;;;;;;11.52;100.00;100656.38;5055152;28;20116;-36
2023/03/22 09:56:59;;;;;;;8.55;1.98;;;;;;;11.48;98.28;100649.81;5054721;28;19944;-36
2023/03/22 09:59:38;;;;;;;6.57;2.20;;;;;;;11.48;99.26;100655.22;5054606;28;20028;-36
2023/03/22 10:02:30;;;;;;;4.88;1.52;;;;;;;11.43;98.96;100636.16;5054621;28;20143;-36
2023/03/22 10:05:16;;;;;;;6.32;1.92;;;;;;;11.51;98.42;100659.31;5054562;28;20041;-36
2023/03/22 10:07:44;;;;;;;11.35;2.28;;;;;;;11.43;98.74;100644.28;5054571;28;20389;-36
2023/03/22 10:10:17;;;;;;;5.57;1.80;;;;;;;11.39;98.14;100639.59;5054190;28;20040;-36
2023/03/22 10:13:20;;;;;;;8.57;1.88;;;;;;;11.41;99.08;100649.09;5054140;28;20032;-36
2023/03/22 10:15:51;;;;;;;7.88;2.17;;;;;;;11.37;99.22;100652.53;5054436;28;20477;-36
2023/03/22 10:18:24;;;;;;;3.65;1.30;;;;;;;11.32;100.00;100658.66;5054638;28;20373;-36
2023/03/22 10:21:07;;;;;;;8.40;2.60;;;;;;;11.27;100.00;100659.41;5053671;28;20021;-37
2023/03/22 10:23:59;;;;;;;9.45;2.80;;;;;;;11.17;100.00;100661.88;5054451;28;20029;-37
2023/03/22 10:26:33;;;;;;;6.45;1.52;;;;;;;11.15;100.00;100677.56;5054460;28;20025;-37
2023/03/22 10:29:02;;;;;;;8.82;2.53;;;;;;;11.09;100.00;100663.09;5054169;28;20028;-36
2023/03/22 10:31:29;;;;;;;6.95;1.60;;;;;;;10.98;100.00;100663.97;5053893;28;20037;-37
2023/03/22 10:34:19;;;;;;;6.22;2.10;;;;;;;10.95;100.00;100667.13;5052551;28;20438;-37
2023/03/22 10:36:47;;;;;;;3.65;1.40;;;;;;;10.78;100.00;100661.63;5054048;28;20029;-37
2023/03/22 10:39:24;;;;;;;5.47;1.55;;;;;;;10.75;100.00;100680.22;5053983;28;20029;-36
2023/03/22 10:41:53;;;;;;;7.57;2.05;;;;;;;10.62;100.00;100677.72;5053655;28;20195;-36
2023/03/22 10:44:21;;;;;;;5.15;1.90;;;;;;;10.53;100.00;100683.47;5053948;28;20035;-36
2023/03/22 10:46:50;;;;;;;5.97;2.03;;;;;;;10.46;100.00;100669.28;5053650;28;20449;-36
2023/03/22 10:49:26;;;;;;;5.65;2.22;;;;;;;10.48;100.00;100672.56;5053579;28;20112;-37
2023/03/22 10:51:56;;;;;;;4.50;1.70;;;;;;;10.55;100.00;100673.28;5053875;28;20033;-37
2023/03/22 10:54:24;;;;;;;5.35;1.90;;;;;;;10.51;100.00;100672.09;5054620;28;20133;-37
2023/03/22 10:56:49;;;;;;;4.88;1.85;;;;;;;10.48;100.00;100667.13;5053374;28;20025;-37
2023/03/22 10:59:48;;;;;;;7.47;1.60;;;;;;;10.47;100.00;100676.31;5053769;28;20116;-36
2023/03/22 11:02:29;;;;;;;7.05;1.92;;;;;;;10.42;100.00;100673.50;5053966;28;20083;-36
2023/03/22 11:04:58;;;;;;;7.70;2.17;;;;;;;10.35;100.00;100674.69;5054278;28;20370;-36
2023/03/22 11:07:39;;;;;;;6.05;2.00;;;;;;;10.27;100.00;100660.44;5053079;28;20025;-36
2023/03/22 11:10:07;;;;;;;6.30;2.30;;;;;;;10.34;100.00;100664.91;5053436;28;20503;-36
2023/03/22 11:12:36;;;;;;;6.20;2.03;;;;;;;10.37;100.00;100670.66;5052989;28;20061;-36
2023/03/22 11:15:02;;;;;;;8.15;2.13;;;;;;;10.35;100.00;100664.69;5054188;28;20350;-37
2023/03/22 11:17:30;;;;;;;7.05;2.45;;;;;;;10.44;100.00;100660.59;5053089;28;20044;-36
2023/03/22 11:20:05;;;;;;;6.18;2.00;;;;;;;10.48;100.00;100656.31;5054129;28;20120;-36
2023/03/22 11:22:43;;;;;;;5.85;2.70;;;;;;;10.50;100.00;100659.63;5054066;28;20043;-36
2023/03/22 11:25:16;;;;;;;7.82;2.47;;;;;;;10.47;100.00;100641.16;5052991;28;20025;-36
2023/03/22 11:28:12;;;;;;;6.22;2.10;;;;;;;10.71;100.00;100649.28;5054056;28;20350;-36
2023/03/22 11:30:37;;;;;;;7.18;2.22;;;;;;;10.69;100.00;100637.88;5042107;28;20037;-36
2023/03/22 11:33:17;;;;;;;6.03;2.27;;;;;;;10.77;100.00;100661.84;5052927;28;20393;-36